Time;durP1;ratioP1;P1;durP2;ratioP2;P2;SDS_P1;SDS_P2;PMS_P1;PMS_P2;Temp;Humidity;BMP_temperature;BMP_pressure;BME280_temperature;BME280_humidity;BME280_pressure;Samples;Min_cycle;Max_cycle;Signal;HPM_P1;HPM_P2
2022/12/01 00:01:30;;;;;;;6.92;4.28;;;;;;;-0.81;62.43;102060.30;1760248;80;20944;-73
2022/12/01 00:03:57;;;;;;;7.87;4.40;;;;;;;-0.80;62.45;102059.80;1731540;80;21128;-73
2022/12/01 00:06:24;;;;;;;10.85;4.42;;;;;;;-0.80;62.43;102054.56;1765903;78;21529;-74
2022/12/01 00:11:37;;;;;;;6.25;3.33;;;;;;;-0.79;62.47;102060.98;1783313;78;21072;-74
2022/12/01 00:14:04;;;;;;;16.60;6.15;;;;;;;-0.76;62.47;102060.70;1763944;80;20972;-73
2022/12/01 00:16:31;;;;;;;8.15;3.98;;;;;;;-0.78;62.44;102058.70;1763335;78;21847;-74
2022/12/01 00:18:58;;;;;;;9.88;3.87;;;;;;;-0.79;62.43;102053.58;1778445;78;21574;-71
2022/12/01 00:21:25;;;;;;;8.25;4.40;;;;;;;-0.84;62.44;102052.71;1778469;80;21113;-74
2022/12/01 00:23:54;;;;;;;8.25;3.80;;;;;;;-0.86;62.45;102052.52;1791822;78;21183;-74
2022/12/01 00:26:21;;;;;;;8.28;3.87;;;;;;;-0.90;62.53;102055.91;1799589;78;20943;-75
2022/12/01 00:28:51;;;;;;;9.88;3.95;;;;;;;-0.94;62.58;102055.87;1800245;78;21281;-75
2022/12/01 00:31:19;;;;;;;8.40;4.12;;;;;;;-0.99;62.62;102053.69;1791024;78;20934;-74
2022/12/01 00:33:45;;;;;;;7.70;3.52;;;;;;;-1.04;62.73;102053.28;1768855;79;21010;-75
2022/12/01 00:36:12;;;;;;;8.30;3.62;;;;;;;-1.06;62.79;102055.70;1775323;79;21066;-74
2022/12/01 00:38:41;;;;;;;7.60;3.67;;;;;;;-1.11;62.93;102057.45;1799105;79;21045;-75
2022/12/01 00:41:08;;;;;;;9.40;4.03;;;;;;;-1.14;63.00;102050.36;1795591;79;21182;-73
2022/12/01 00:43:35;;;;;;;6.47;3.55;;;;;;;-1.16;63.09;102052.28;1780176;79;21085;-74
2022/12/01 00:46:01;;;;;;;7.60;3.50;;;;;;;-1.16;63.16;102053.59;1798267;79;21007;-73
2022/12/01 00:48:28;;;;;;;8.28;3.40;;;;;;;-1.16;63.27;102049.66;1797983;79;21000;-73
2022/12/01 00:50:54;;;;;;;7.40;4.10;;;;;;;-1.19;63.36;102051.59;1777701;80;21541;-73
2022/12/01 00:53:21;;;;;;;10.08;3.83;;;;;;;-1.17;63.41;102051.95;1801116;79;21123;-73
2022/12/01 00:55:48;;;;;;;6.40;3.47;;;;;;;-1.19;63.42;102046.34;1788390;80;21035;-74
2022/12/01 00:58:15;;;;;;;8.70;4.17;;;;;;;-1.21;63.46;102047.48;1787286;80;20972;-73
2022/12/01 01:00:41;;;;;;;9.88;4.17;;;;;;;-1.22;63.50;102045.81;1785428;79;20974;-73
2022/12/01 01:03:09;;;;;;;8.55;3.62;;;;;;;-1.24;63.51;102047.28;1787374;78;20956;-73
2022/12/01 01:05:37;;;;;;;7.62;3.72;;;;;;;-1.23;63.55;102049.41;1787949;80;21557;-74
2022/12/01 01:08:09;;;;;;;8.50;4.00;;;;;;;-1.25;63.56;102044.33;1788311;80;21066;-73
2022/12/01 01:10:41;;;;;;;7.10;3.53;;;;;;;-1.24;63.58;102040.72;1772239;80;21129;-73
2022/12/01 01:13:07;;;;;;;7.87;3.20;;;;;;;-1.06;63.33;102046.52;1788821;80;21490;-73
2022/12/01 01:15:34;;;;;;;5.87;3.40;;;;;;;-1.06;63.18;102036.03;1789782;80;21105;-75
2022/12/01 01:18:01;;;;;;;6.92;3.60;;;;;;;-1.08;63.15;102036.19;1765867;79;21920;-74
2022/12/01 01:20:28;;;;;;;7.03;3.47;;;;;;;-1.11;63.13;102039.59;1765536;81;21621;-74
2022/12/01 01:22:54;;;;;;;6.80;3.60;;;;;;;-1.11;63.14;102040.90;1794271;79;20956;-74
2022/12/01 01:25:21;;;;;;;6.80;3.60;;;;;;;-1.11;63.17;102036.97;1797736;79;21046;-74
2022/12/01 01:27:48;;;;;;;9.15;3.60;;;;;;;-1.10;63.17;102035.98;1793743;79;21438;-74
2022/12/01 01:30:15;;;;;;;5.72;3.17;;;;;;;-1.12;63.18;102033.98;1785861;78;21567;-75
2022/12/01 01:32:42;;;;;;;7.22;3.50;;;;;;;-1.15;63.21;102032.95;1789676;78;21066;-75
2022/12/01 01:35:08;;;;;;;7.35;4.08;;;;;;;-1.17;63.27;102031.80;1779076;78;21049;-75
2022/12/01 01:37:35;;;;;;;8.88;3.90;;;;;;;-1.17;63.24;102028.36;1790598;78;21022;-74
2022/12/01 01:40:05;;;;;;;7.37;3.33;;;;;;;-1.15;63.30;102031.19;1767119;79;21116;-75
2022/12/01 01:42:32;;;;;;;8.85;3.52;;;;;;;-1.15;63.35;102025.94;1796653;78;21137;-75
2022/12/01 01:44:59;;;;;;;7.12;3.45;;;;;;;-1.13;63.37;102025.78;1792156;78;21011;-75
2022/12/01 01:47:37;;;;;;;7.67;3.58;;;;;;;-1.13;63.36;102031.03;1784155;78;21583;-75
2022/12/01 01:50:08;;;;;;;10.30;3.60;;;;;;;-1.15;63.40;102031.64;1785599;79;20999;-75
2022/12/01 01:52:45;;;;;;;8.63;3.65;;;;;;;-1.15;63.42;102032.50;1784419;78;21006;-75
2022/12/01 01:55:11;;;;;;;7.37;3.37;;;;;;;-1.14;63.47;102041.19;1792148;78;21784;-76
2022/12/01 01:57:39;;;;;;;7.22;4.03;;;;;;;-1.12;63.47;102034.80;1790678;78;21022;-76
2022/12/01 02:00:15;;;;;;;9.33;3.65;;;;;;;-1.09;63.50;102037.14;1750826;78;21046;-75
2022/12/01 02:02:44;;;;;;;10.50;4.05;;;;;;;-1.05;63.44;102037.22;1779582;78;21038;-74
2022/12/01 02:05:26;;;;;;;8.63;4.30;;;;;;;-1.05;63.38;102033.28;1793789;78;21035;-74
2022/12/01 02:07:56;;;;;;;7.15;3.25;;;;;;;-1.03;63.29;102033.13;1802661;78;21248;-75
2022/12/01 02:10:39;;;;;;;8.10;4.03;;;;;;;-1.03;63.29;102033.13;1799838;79;21082;-75
2022/12/01 02:13:17;;;;;;;7.42;4.08;;;;;;;-1.03;63.23;102035.74;1789575;78;21090;-74
2022/12/01 02:15:56;;;;;;;7.60;3.77;;;;;;;-1.03;63.17;102031.32;1799899;78;21034;-76
2022/12/01 02:18:28;;;;;;;8.08;3.87;;;;;;;-1.09;63.10;102030.58;1792521;78;21585;-72
2022/12/01 02:21:09;;;;;;;7.62;3.60;;;;;;;-1.15;63.14;102030.33;1765637;79;21114;-74
2022/12/01 02:23:59;;;;;;;9.63;3.42;;;;;;;-1.16;63.20;102028.69;1732444;80;21053;-74
2022/12/01 02:26:47;;;;;;;6.90;3.58;;;;;;;-1.19;63.26;102027.17;1773521;78;21148;-74
2022/12/01 02:29:48;;;;;;;7.37;3.47;;;;;;;-1.24;63.31;102029.41;1764959;80;21078;-73
2022/12/01 02:32:32;;;;;;;6.03;3.20;;;;;;;-1.24;63.35;102027.62;1763155;78;21503;-73
2022/12/01 02:35:29;;;;;;;7.90;3.33;;;;;;;-1.29;63.48;102023.77;1760448;78;21153;-74
2022/12/01 02:38:20;;;;;;;8.15;3.65;;;;;;;-1.30;63.52;102022.94;1787953;78;21015;-74
2022/12/01 02:41:09;;;;;;;5.58;2.52;;;;;;;-1.31;63.52;102022.61;1766656;78;21073;-73
2022/12/01 02:44:11;;;;;;;6.90;3.20;;;;;;;-1.34;63.59;102024.20;1777737;78;21034;-75
2022/12/01 02:46:48;;;;;;;7.47;3.30;;;;;;;-1.39;63.69;102019.03;1765368;78;21169;-75
2022/12/01 02:49:18;;;;;;;7.58;3.35;;;;;;;-1.43;63.76;102028.49;1783758;78;21804;-75
2022/12/01 02:51:44;;;;;;;8.38;3.80;;;;;;;-1.46;63.85;102025.33;1786218;78;20948;-73
2022/12/01 02:54:13;;;;;;;7.75;4.00;;;;;;;-1.46;63.91;102031.88;1763751;78;22151;-73
2022/12/01 02:56:39;;;;;;;9.40;3.60;;;;;;;-1.50;63.95;102030.03;1767776;78;21078;-73
2022/12/01 02:59:13;;;;;;;7.97;3.77;;;;;;;-1.50;63.99;102030.03;1743118;80;21054;-73
2022/12/01 03:02:10;;;;;;;6.47;3.40;;;;;;;-1.52;64.04;102031.13;1776112;78;21121;-72
2022/12/01 03:05:07;;;;;;;7.45;3.30;;;;;;;-1.55;64.11;102027.48;1732777;80;21007;-74
2022/12/01 03:07:42;;;;;;;8.60;3.62;;;;;;;-1.58;64.23;102037.78;1774404;79;20971;-73
2022/12/01 03:10:24;;;;;;;7.85;4.00;;;;;;;-1.60;64.34;102027.91;1739428;78;21517;-73
2022/12/01 03:13:32;;;;;;;9.63;4.45;;;;;;;-1.60;64.39;102025.78;1772753;80;22594;-74
2022/12/01 03:16:28;;;;;;;7.60;3.92;;;;;;;-1.60;64.39;102029.72;1767836;78;21058;-72
2022/12/01 03:19:15;;;;;;;7.37;4.15;;;;;;;-1.63;64.46;102024.75;1770242;78;21018;-72
2022/12/01 03:21:50;;;;;;;10.45;4.92;;;;;;;-1.63;64.50;102033.44;1749633;80;20971;-73
2022/12/01 03:24:19;;;;;;;9.78;4.97;;;;;;;-1.66;64.55;102020.13;1780673;78;21004;-73
2022/12/01 03:26:50;;;;;;;7.60;3.87;;;;;;;-1.63;64.58;102028.69;1780309;78;21097;-75
2022/12/01 03:29:23;;;;;;;7.45;4.30;;;;;;;-1.63;64.58;102024.75;1778772;78;21091;-72
2022/12/01 03:32:03;;;;;;;10.48;4.80;;;;;;;-1.66;64.64;102029.30;1776353;78;21383;-73
2022/12/01 03:47:41;;;;;;;8.03;3.93;;;;;;;-1.16;64.29;102020.34;1770643;77;22730;-74
2022/12/01 03:50:12;;;;;;;7.72;4.22;;;;;;;-1.19;64.10;102022.75;1784025;79;20952;-74
2022/12/01 03:52:58;;;;;;;6.78;4.08;;;;;;;-1.21;64.05;102026.02;1818866;78;21215;-72
2022/12/01 03:55:30;;;;;;;9.90;4.72;;;;;;;-1.24;63.98;102030.73;1768420;81;21501;-73
2022/12/01 03:58:01;;;;;;;9.03;4.45;;;;;;;-1.31;63.97;102033.09;1769467;81;21478;-73
2022/12/01 04:00:28;;;;;;;9.88;4.33;;;;;;;-1.35;64.00;102035.66;1771311;81;21038;-73
2022/12/01 04:03:01;;;;;;;7.12;3.75;;;;;;;-1.38;64.02;102041.64;1739056;81;21039;-73
2022/12/01 04:05:28;;;;;;;7.03;4.05;;;;;;;-1.43;63.99;102036.84;1760929;81;21296;-72
2022/12/01 04:07:55;;;;;;;8.63;3.98;;;;;;;-1.48;64.01;102041.21;1770699;81;20928;-73
2022/12/01 04:10:22;;;;;;;9.88;4.40;;;;;;;-1.51;64.05;102045.91;1768382;81;21443;-74
2022/12/01 04:12:48;;;;;;;8.63;4.15;;;;;;;-1.55;64.08;102045.83;1765299;81;21030;-73
2022/12/01 04:15:15;;;;;;;11.00;5.00;;;;;;;-1.54;64.14;102039.64;1768026;80;21035;-73
2022/12/01 04:17:43;;;;;;;8.10;4.28;;;;;;;-1.54;64.12;102037.02;1771827;81;21159;-73
2022/12/01 04:20:13;;;;;;;10.85;4.40;;;;;;;-1.57;64.15;102047.78;1769943;81;21569;-73
2022/12/01 04:22:39;;;;;;;7.45;3.47;;;;;;;-1.60;64.19;102044.13;1767430;81;21422;-73
2022/12/01 04:25:06;;;;;;;7.47;4.03;;;;;;;-1.66;64.25;102050.25;1770256;81;21502;-74
2022/12/01 04:27:33;;;;;;;8.90;4.90;;;;;;;-1.70;64.28;102053.30;1769529;81;21051;-73
2022/12/01 04:29:59;;;;;;;8.20;4.00;;;;;;;-1.72;64.33;102047.37;1768577;80;21140;-73
2022/12/01 04:32:27;;;;;;;9.50;4.58;;;;;;;-1.73;64.41;102043.92;1769991;79;20972;-74
2022/12/01 04:34:53;;;;;;;9.43;4.45;;;;;;;-1.74;64.43;102050.14;1769241;81;21031;-74
2022/12/01 04:37:20;;;;;;;7.85;4.50;;;;;;;-1.76;64.45;102050.75;1766899;81;20979;-74
2022/12/01 04:39:47;;;;;;;10.38;4.75;;;;;;;-1.79;64.53;102056.27;1766897;80;21043;-74
2022/12/01 04:42:14;;;;;;;9.53;4.00;;;;;;;-1.82;64.59;102052.61;1770805;80;21246;-74
2022/12/01 04:44:41;;;;;;;8.45;4.22;;;;;;;-1.83;64.63;102047.53;1766981;81;20979;-74
2022/12/01 04:47:07;;;;;;;9.50;4.55;;;;;;;-1.87;64.68;102054.84;1768313;81;21060;-73
2022/12/01 04:49:35;;;;;;;13.15;4.65;;;;;;;-1.91;64.76;102052.12;1741448;81;21079;-73
2022/12/01 04:52:03;;;;;;;12.35;4.80;;;;;;;-1.95;64.83;102049.45;1754420;81;20969;-73
2022/12/01 05:05:49;;;;;;;8.77;5.10;;;;;;;-1.47;64.61;102044.65;1809024;79;22720;-73
2022/12/01 05:08:16;;;;;;;9.35;5.37;;;;;;;-1.49;64.52;102042.64;1817909;78;20860;-72
2022/12/01 05:10:43;;;;;;;9.63;5.30;;;;;;;-1.52;64.46;102045.55;1812654;78;21141;-74
2022/12/01 05:13:09;;;;;;;9.60;4.83;;;;;;;-1.58;64.47;102053.50;1801913;77;20998;-74
2022/12/01 05:15:37;;;;;;;10.05;5.00;;;;;;;-1.64;64.46;102048.82;1802622;78;21011;-71
2022/12/01 05:18:04;;;;;;;10.20;5.60;;;;;;;-1.69;64.53;102051.84;1811293;78;20959;-73
2022/12/01 05:23:15;;;;;;;7.10;3.98;;;;;;;-1.64;64.53;102053.23;1823164;78;21010;-73
2022/12/01 05:25:42;;;;;;;8.38;4.42;;;;;;;-1.71;64.49;102056.87;1813404;78;21039;-73
2022/12/01 05:28:09;;;;;;;10.18;5.17;;;;;;;-1.76;64.51;102053.38;1798587;78;20931;-74
2022/12/01 05:30:35;;;;;;;12.03;5.65;;;;;;;-1.75;64.59;102055.02;1796150;78;21037;-74
2022/12/01 05:33:03;;;;;;;11.50;5.70;;;;;;;-1.74;64.59;102050.63;1795752;78;21502;-74
2022/12/01 05:35:33;;;;;;;9.90;4.75;;;;;;;-1.72;64.63;102052.60;1814974;78;21265;-73
2022/12/01 05:37:59;;;;;;;8.83;4.40;;;;;;;-1.74;64.57;102059.31;1811985;78;21062;-74
2022/12/01 05:40:26;;;;;;;9.23;4.78;;;;;;;-1.77;64.59;102052.21;1790326;80;21043;-74
2022/12/01 05:42:52;;;;;;;8.65;4.87;;;;;;;-1.77;64.66;102058.77;1790438;80;21509;-72
2022/12/01 05:45:18;;;;;;;8.13;4.65;;;;;;;-1.76;64.68;102061.23;1791259;78;20987;-72
2022/12/01 05:47:45;;;;;;;7.40;4.03;;;;;;;-1.76;64.70;102060.41;1790485;79;21822;-72
2022/12/01 05:50:11;;;;;;;7.67;4.12;;;;;;;-1.74;64.71;102061.93;1828833;77;21602;-74
2022/12/01 05:52:38;;;;;;;9.00;4.70;;;;;;;-1.70;64.69;102067.23;1845581;77;21073;-74
2022/12/01 05:55:05;;;;;;;11.20;5.55;;;;;;;-1.70;64.67;102067.72;1845392;77;21000;-73
2022/12/01 05:57:32;;;;;;;10.85;5.33;;;;;;;-1.66;64.64;102073.83;1845315;77;21051;-73
2022/12/01 05:59:59;;;;;;;11.15;4.75;;;;;;;-1.63;64.61;102069.29;1756176;81;21756;-73
2022/12/01 06:02:25;;;;;;;8.45;4.87;;;;;;;-1.62;64.55;102075.69;1718510;82;21487;-73
2022/12/01 06:04:52;;;;;;;8.75;4.90;;;;;;;-1.59;64.52;102069.34;1755403;81;21027;-73
2022/12/01 06:07:22;;;;;;;8.83;4.72;;;;;;;-1.56;64.42;102073.00;1754917;81;21091;-73
2022/12/01 06:09:48;;;;;;;7.53;4.10;;;;;;;-1.62;64.55;102078.80;1755093;81;21590;-74
2022/12/01 06:12:15;;;;;;;9.78;5.22;;;;;;;-1.63;64.72;102079.28;1755113;80;21244;-74
2022/12/01 06:14:42;;;;;;;8.50;4.80;;;;;;;-1.60;64.72;102079.49;1755051;81;21013;-74
2022/12/01 06:17:09;;;;;;;10.03;4.72;;;;;;;-1.56;64.68;102080.86;1755207;81;21001;-73
2022/12/01 11:08:46;;;;;;;5.10;3.20;;;;;;;2.13;57.07;101988.05;1853577;77;22604;-69
2022/12/01 11:11:33;;;;;;;6.08;3.87;;;;;;;2.11;56.60;101986.42;1850706;77;20844;-70
2022/12/01 11:14:06;;;;;;;6.45;3.75;;;;;;;2.15;56.52;101980.81;1847591;77;21069;-71
2022/12/01 11:16:42;;;;;;;6.05;3.47;;;;;;;2.18;55.90;101981.80;1822399;77;20860;-71
2022/12/01 11:19:24;;;;;;;8.68;3.80;;;;;;;2.22;55.96;101965.98;1815998;79;20916;-69
2022/12/01 11:21:53;;;;;;;7.85;3.98;;;;;;;2.25;55.78;101966.96;1804481;78;20978;-69
2022/12/01 11:24:35;;;;;;;6.10;3.12;;;;;;;2.27;55.46;101959.22;1816050;79;20868;-71
2022/12/01 11:27:02;;;;;;;7.05;3.22;;;;;;;2.27;55.34;101959.69;1803903;79;21151;-71
2022/12/01 11:29:34;;;;;;;7.92;3.35;;;;;;;2.29;55.21;101966.95;1816032;79;20897;-71
2022/12/01 11:32:05;;;;;;;7.15;3.05;;;;;;;2.30;55.19;101958.03;1815531;79;21426;-71
2022/12/01 11:34:37;;;;;;;6.72;3.55;;;;;;;2.34;55.12;101957.55;1813588;79;21390;-71
2022/12/01 11:37:07;;;;;;;6.95;3.20;;;;;;;2.38;55.17;101955.40;1816200;79;21398;-70
2022/12/01 11:39:41;;;;;;;7.72;3.72;;;;;;;2.46;55.01;101960.64;1815980;79;21154;-71
2022/12/01 11:42:17;;;;;;;7.67;3.50;;;;;;;2.48;54.81;101953.39;1815444;79;21477;-70
2022/12/01 11:44:50;;;;;;;8.40;3.10;;;;;;;2.46;54.82;101954.05;1815518;79;20884;-70
2022/12/01 11:47:24;;;;;;;8.35;3.20;;;;;;;2.47;55.03;101960.98;1789255;80;20896;-71
2022/12/01 12:03:34;;;;;;;5.97;3.30;;;;;;;3.14;53.97;101954.45;1827624;77;22731;-72
2022/12/01 12:06:24;;;;;;;7.28;3.52;;;;;;;3.21;53.86;101956.72;1800393;79;21407;-69
2022/12/01 12:09:16;;;;;;;4.85;2.60;;;;;;;3.29;53.60;101952.22;1800448;79;21152;-70
2022/12/01 12:11:54;;;;;;;4.97;2.65;;;;;;;3.31;52.80;101952.03;1804240;79;20963;-69
2022/12/01 12:14:26;;;;;;;6.08;3.17;;;;;;;3.36;52.92;101951.53;1802890;79;21466;-70
2022/12/01 12:17:04;;;;;;;5.10;2.83;;;;;;;3.42;52.98;101952.97;1805508;79;20984;-71
2022/12/01 12:20:01;;;;;;;6.12;3.10;;;;;;;3.48;52.87;101946.96;1805380;79;21411;-70
2022/12/01 12:22:48;;;;;;;5.92;2.92;;;;;;;3.57;52.86;101947.73;1805745;79;21253;-71
2022/12/01 12:25:43;;;;;;;5.35;2.67;;;;;;;3.62;52.27;101949.84;1800143;79;20881;-70
2022/12/01 12:28:33;;;;;;;5.85;2.62;;;;;;;3.65;52.11;101949.02;1805669;79;21509;-70
2022/12/01 12:31:28;;;;;;;5.97;2.70;;;;;;;3.64;51.64;101946.53;1797929;79;21031;-71
2022/12/01 12:34:00;;;;;;;6.22;2.50;;;;;;;3.55;51.36;101946.27;1805677;79;20929;-70
2022/12/01 12:36:48;;;;;;;4.90;2.87;;;;;;;3.46;51.40;101941.05;1805683;79;21167;-70
2022/12/01 12:40:11;;;;;;;6.45;2.80;;;;;;;3.42;51.68;101950.80;1805634;79;21032;-72
2022/12/01 12:42:59;;;;;;;6.75;2.72;;;;;;;3.33;51.22;101959.30;1805707;79;20951;-72
2022/12/01 12:45:37;;;;;;;7.12;3.30;;;;;;;3.23;51.76;101961.34;1805819;79;20884;-71
2022/12/01 12:48:21;;;;;;;8.23;4.10;;;;;;;3.18;51.88;101961.02;1815245;78;21332;-71
2022/12/01 12:51:12;;;;;;;5.28;3.00;;;;;;;3.12;52.21;101961.72;1825006;78;21218;-71
2022/12/01 12:53:49;;;;;;;5.50;2.70;;;;;;;3.04;52.10;101965.23;1792574;79;21027;-71
2022/12/01 12:56:18;;;;;;;7.03;2.90;;;;;;;2.99;52.46;101969.69;1749446;80;21037;-70
2022/12/01 12:58:56;;;;;;;6.65;2.67;;;;;;;2.94;52.69;101969.39;1743430;82;21419;-71
2022/12/01 13:01:36;;;;;;;6.85;2.65;;;;;;;2.90;52.79;101966.78;1741319;82;21003;-70
2022/12/01 13:04:22;;;;;;;6.37;2.92;;;;;;;2.85;52.77;101970.91;1757423;81;22201;-72
2022/12/01 13:07:03;;;;;;;6.15;2.90;;;;;;;2.78;52.86;101966.81;1742795;82;21141;-72
2022/12/01 13:09:43;;;;;;;5.60;2.47;;;;;;;2.75;53.26;101969.80;1736810;82;20896;-69
2022/12/01 13:12:30;;;;;;;5.47;2.80;;;;;;;2.71;53.12;101973.78;1756634;81;20946;-71
2022/12/01 13:15:17;;;;;;;6.25;2.80;;;;;;;2.68;53.41;101964.38;1742415;82;21133;-71
2022/12/01 13:17:50;;;;;;;6.03;2.75;;;;;;;2.66;53.65;101964.22;1756818;80;21263;-72
2022/12/01 13:20:22;;;;;;;4.83;2.50;;;;;;;2.64;53.67;101968.86;1742879;82;21071;-72
2022/12/01 13:22:49;;;;;;;5.95;2.70;;;;;;;2.61;53.77;101956.00;1757179;80;26597;-72
2022/12/01 13:25:24;;;;;;;6.40;2.83;;;;;;;2.53;53.82;101957.68;1743326;82;20995;-71
2022/12/01 13:27:50;;;;;;;6.17;2.85;;;;;;;2.46;53.94;101958.00;1742863;82;21003;-72
2022/12/01 13:30:21;;;;;;;8.33;3.20;;;;;;;2.42;54.26;101957.20;1757308;81;21170;-72
2022/12/01 13:32:59;;;;;;;5.60;2.70;;;;;;;2.43;54.40;101960.16;1742616;82;21016;-71
2022/12/01 13:35:35;;;;;;;7.58;3.30;;;;;;;2.43;54.59;101962.30;1728188;81;20979;-72
2022/12/01 13:38:32;;;;;;;4.83;2.50;;;;;;;2.43;54.55;101960.98;1754118;81;20991;-72
2022/12/01 13:41:23;;;;;;;7.37;2.85;;;;;;;2.45;54.69;101960.33;1753440;81;21502;-70
2022/12/01 13:44:06;;;;;;;6.50;2.80;;;;;;;2.42;54.78;101958.52;1757273;81;21166;-72
2022/12/01 13:46:46;;;;;;;7.78;2.98;;;;;;;2.37;54.97;101955.55;1724685;82;21058;-70
2022/12/01 13:49:44;;;;;;;6.08;2.72;;;;;;;2.34;55.14;101965.96;1690107;85;21726;-70
2022/12/01 15:53:28;;;;;;;9.97;5.63;;;;;;;2.32;59.42;101953.44;1843337;76;22764;-71
2022/12/01 15:55:56;;;;;;;10.00;5.65;;;;;;;2.29;58.80;101947.17;1845555;77;21027;-69
2022/12/01 15:58:30;;;;;;;12.80;6.58;;;;;;;2.21;58.35;101947.20;1850419;75;21166;-71
2022/12/01 16:01:11;;;;;;;11.25;6.17;;;;;;;2.17;58.17;101935.33;1851796;75;22072;-71
2022/12/01 16:03:53;;;;;;;13.05;6.90;;;;;;;2.14;57.94;101943.56;1833138;78;21021;-72
2022/12/01 16:06:25;;;;;;;11.25;6.42;;;;;;;2.13;57.80;101941.42;1858753;76;21509;-72
2022/12/01 16:08:56;;;;;;;13.05;6.40;;;;;;;2.16;57.76;101940.28;1840618;76;21053;-71
2022/12/01 16:11:22;;;;;;;13.90;6.80;;;;;;;2.13;57.68;101936.66;1864837;76;21307;-71
2022/12/01 16:14:06;;;;;;;9.20;5.92;;;;;;;2.08;57.55;101934.03;1866623;76;21031;-72
2022/12/01 16:16:46;;;;;;;12.93;6.60;;;;;;;2.07;57.52;101929.77;1858075;75;21101;-70
2022/12/01 16:19:25;;;;;;;11.08;6.25;;;;;;;2.08;57.53;101934.03;1833304;78;21083;-71
2022/12/01 16:22:14;;;;;;;12.03;6.67;;;;;;;2.04;57.45;101928.78;1851065;76;21021;-70
2022/12/01 16:24:54;;;;;;;10.20;6.47;;;;;;;2.02;57.39;101933.38;1832962;78;21227;-70
2022/12/01 16:27:23;;;;;;;15.85;7.60;;;;;;;2.02;57.21;101928.61;1861921;76;20996;-71
2022/12/01 16:29:53;;;;;;;13.05;7.15;;;;;;;2.01;57.27;101919.06;1867963;76;21011;-71
2022/12/01 16:32:33;;;;;;;16.32;7.65;;;;;;;2.00;57.39;101923.98;1865557;75;21103;-72
2022/12/01 16:35:00;;;;;;;14.10;7.30;;;;;;;2.03;57.35;101919.70;1851707;75;21460;-72
2022/12/01 16:37:26;;;;;;;13.80;6.75;;;;;;;2.03;57.32;101919.70;1863324;75;21105;-71
2022/12/01 16:39:53;;;;;;;13.67;7.50;;;;;;;2.06;57.24;101924.14;1730822;76;10000536;-71
2022/12/01 16:42:20;;;;;;;13.95;7.60;;;;;;;2.04;57.14;101916.07;1886058;75;21083;-72
2022/12/01 16:44:47;;;;;;;20.15;10.45;;;;;;;2.00;57.01;101922.67;1887186;74;21033;-71
2022/12/01 16:47:21;;;;;;;30.95;13.83;;;;;;;1.95;57.04;101917.91;1857276;77;21071;-72
2022/12/01 16:49:48;;;;;;;30.00;14.28;;;;;;;1.97;57.14;101919.87;1888738;75;20955;-71
2022/12/01 16:52:15;;;;;;;23.20;12.10;;;;;;;1.97;57.16;101921.19;1857251;76;22017;-72
2022/12/01 16:54:42;;;;;;;17.30;10.25;;;;;;;1.95;57.15;101921.05;1857898;76;21623;-72
2022/12/01 16:57:08;;;;;;;21.42;10.85;;;;;;;1.90;57.08;101914.13;1850034;77;21559;-72
2022/12/01 16:59:36;;;;;;;17.57;9.93;;;;;;;1.84;57.18;101918.23;1870981;74;21143;-72
2022/12/01 17:02:03;;;;;;;18.35;11.40;;;;;;;1.79;57.23;101916.61;1855078;77;21045;-72
2022/12/01 17:04:29;;;;;;;22.42;10.68;;;;;;;1.73;57.28;101925.98;1863470;76;21136;-70
2022/12/01 17:06:56;;;;;;;18.17;11.00;;;;;;;1.69;57.37;101927.80;1838553;77;21025;-70
2022/12/01 17:09:23;;;;;;;21.57;10.82;;;;;;;1.63;57.47;101927.96;1848594;77;20995;-70
2022/12/01 17:11:49;;;;;;;22.15;12.85;;;;;;;1.59;57.61;101923.52;1856888;77;21245;-70
2022/12/01 17:14:18;;;;;;;22.62;12.47;;;;;;;1.53;57.67;101924.66;1880902;74;20991;-72
2022/12/01 17:16:45;;;;;;;22.67;12.55;;;;;;;1.46;57.83;101930.26;1854989;76;21053;-72
2022/12/01 17:19:11;;;;;;;16.02;10.25;;;;;;;1.35;58.00;101922.16;1847639;76;21027;-71
2022/12/01 17:21:38;;;;;;;18.92;11.48;;;;;;;1.30;58.18;101923.16;1850246;75;21061;-71
2022/12/01 17:24:06;;;;;;;19.82;10.75;;;;;;;1.27;58.35;101920.84;1865168;76;21108;-72
2022/12/01 17:26:32;;;;;;;18.67;11.05;;;;;;;1.21;58.52;101924.13;1877990;75;20974;-71
2022/12/01 17:28:58;;;;;;;17.52;9.55;;;;;;;1.16;58.63;101920.17;1867300;76;21063;-72
2022/12/01 17:31:25;;;;;;;21.80;11.33;;;;;;;1.17;58.77;101927.08;1865375;76;21564;-72
2022/12/01 17:33:51;;;;;;;21.42;10.98;;;;;;;1.17;58.84;101924.94;1886982;76;21080;-71
2022/12/01 17:36:19;;;;;;;21.00;11.75;;;;;;;1.18;58.93;101918.68;1833658;77;21160;-72
2022/12/01 17:38:45;;;;;;;16.02;8.90;;;;;;;1.17;58.95;101920.50;1884589;74;21077;-71
2022/12/01 17:41:15;;;;;;;22.77;11.75;;;;;;;1.15;59.05;101917.69;1886637;74;21634;-72
2022/12/01 17:43:42;;;;;;;19.82;10.90;;;;;;;1.10;59.13;101913.42;1891101;74;21002;-72
2022/12/01 17:46:10;;;;;;;18.87;10.93;;;;;;;1.20;58.97;101916.72;1887262;76;21014;-72
2022/12/01 17:48:43;;;;;;;17.27;9.68;;;;;;;1.17;58.98;101907.34;1857097;76;21619;-72
2022/12/01 17:51:11;;;;;;;21.27;11.20;;;;;;;1.15;58.98;101908.47;1836593;77;20930;-71
2022/12/01 17:53:38;;;;;;;19.80;10.60;;;;;;;1.15;59.03;101909.80;1847168;77;21010;-72
2022/12/01 17:56:10;;;;;;;17.95;10.48;;;;;;;1.13;59.08;101907.34;1855875;77;21058;-72
2022/12/01 17:58:36;;;;;;;18.95;10.75;;;;;;;1.14;59.06;101908.97;1839318;76;21615;-71
2022/12/01 18:01:04;;;;;;;18.92;10.18;;;;;;;1.11;59.10;101911.92;1885655;74;21850;-71
2022/12/01 18:03:31;;;;;;;20.57;10.93;;;;;;;1.07;59.11;101909.79;1888033;75;20994;-71
2022/12/01 18:05:59;;;;;;;18.32;9.95;;;;;;;1.03;59.16;101918.50;1866090;76;21544;-71
2022/12/01 18:08:27;;;;;;;19.98;10.60;;;;;;;1.02;59.22;101909.44;1888201;74;21045;-71
2022/12/01 18:10:53;;;;;;;18.02;10.25;;;;;;;0.98;59.22;101917.33;1868060;76;20915;-71
2022/12/01 18:13:21;;;;;;;19.92;9.10;;;;;;;0.95;59.29;101918.46;1885906;74;21776;-72
2022/12/01 18:15:48;;;;;;;15.37;8.90;;;;;;;0.91;59.31;101912.70;1749988;74;9999957;-71
2022/12/01 18:18:15;;;;;;;19.15;9.75;;;;;;;0.91;59.29;101911.37;1879196;74;21060;-73
2022/12/01 18:20:43;;;;;;;18.15;9.58;;;;;;;0.89;59.33;101914.69;1877968;74;21056;-71
2022/12/01 18:23:10;;;;;;;19.52;9.83;;;;;;;0.88;59.37;101910.38;1887578;74;21108;-72
2022/12/01 18:25:37;;;;;;;17.82;9.93;;;;;;;0.88;59.41;101911.70;1888506;75;21030;-72
2022/12/01 18:28:04;;;;;;;18.40;11.10;;;;;;;0.90;59.42;101910.23;1873383;76;21002;-71
2022/12/01 18:30:32;;;;;;;21.35;10.93;;;;;;;0.90;59.39;101916.81;1883569;74;21221;-72
2022/12/01 18:33:00;;;;;;;18.23;10.23;;;;;;;0.89;59.37;101913.86;1882145;74;21003;-72
2022/12/01 18:35:26;;;;;;;19.15;11.45;;;;;;;0.90;59.33;101912.88;1887825;76;21141;-71
2022/12/01 18:37:56;;;;;;;15.45;9.90;;;;;;;0.90;59.37;101909.74;1877377;76;21078;-72
2022/12/01 18:40:22;;;;;;;17.27;10.10;;;;;;;0.89;59.43;101914.69;1842407;75;21041;-71
2022/12/01 18:42:50;;;;;;;19.85;10.18;;;;;;;0.79;59.60;101909.20;1869372;75;21058;-72
2022/12/01 18:45:17;;;;;;;17.40;9.68;;;;;;;0.77;59.70;101913.31;1874635;74;21548;-72
2022/12/01 18:47:44;;;;;;;20.50;10.43;;;;;;;0.80;59.72;101910.38;1880984;75;21216;-72
2022/12/01 18:50:11;;;;;;;20.92;11.20;;;;;;;0.85;59.59;101911.20;1886352;74;22352;-72
2022/12/01 18:52:37;;;;;;;20.88;11.60;;;;;;;0.84;59.54;101905.61;1883274;75;21003;-72
2022/12/01 18:55:04;;;;;;;20.10;11.15;;;;;;;0.89;59.54;101907.29;1892383;74;21046;-72
2022/12/01 18:57:31;;;;;;;19.30;10.72;;;;;;;0.91;59.44;101906.61;1856906;76;21105;-71
2022/12/01 18:59:58;;;;;;;20.00;10.10;;;;;;;0.96;59.47;101908.78;1857007;76;21171;-72
2022/12/01 19:02:25;;;;;;;15.90;9.40;;;;;;;0.99;59.25;101907.12;1856164;76;21054;-72
2022/12/01 19:04:52;;;;;;;21.68;10.50;;;;;;;1.04;59.24;101902.21;1834064;76;21072;-72
2022/12/01 19:07:18;;;;;;;16.80;9.60;;;;;;;1.05;59.12;101903.85;1878311;74;21546;-72
2022/12/01 19:09:45;;;;;;;18.87;10.38;;;;;;;1.04;59.07;101906.98;1889345;74;21091;-71
2022/12/01 19:12:12;;;;;;;17.20;9.75;;;;;;;1.04;59.02;101904.34;1889792;74;21640;-72
2022/12/01 19:14:39;;;;;;;20.52;10.80;;;;;;;1.01;58.97;101907.80;1887754;76;21022;-71
2022/12/01 19:17:06;;;;;;;17.15;8.98;;;;;;;0.99;58.94;101906.66;1889717;74;21462;-71
2022/12/01 19:19:34;;;;;;;18.17;9.93;;;;;;;0.97;58.91;101908.61;1827164;77;21077;-72
2022/12/01 19:22:04;;;;;;;13.20;7.62;;;;;;;0.94;58.85;101910.24;1850253;76;21632;-72